Time;durP1;ratioP1;P1;durP2;ratioP2;P2;SDS_P1;SDS_P2;PMS_P1;PMS_P2;Temp;Humidity;BMP_temperature;BMP_pressure;BME280_temperature;BME280_humidity;BME280_pressure;Samples;Min_cycle;Max_cycle;Signal;HPM_P1;HPM_P2
2021/07/29 00:00:25;;;;;;;4.82;3.50;;;;;;;10.65;100.00;93088.69;2108878;28;20097;-85
2021/07/29 00:01:26;;;;;;;7.53;3.53;;;;;;;10.59;100.00;93088.44;2105902;28;20459;-84
2021/07/29 00:02:27;;;;;;;3.55;3.08;;;;;;;10.56;100.00;93095.34;2106739;28;20024;-84
2021/07/29 00:03:28;;;;;;;4.35;3.95;;;;;;;10.59;100.00;93088.44;2098614;28;20071;-85
2021/07/29 00:04:29;;;;;;;4.72;3.42;;;;;;;10.61;100.00;93096.03;2099379;28;20031;-84
2021/07/29 00:05:31;;;;;;;4.35;3.78;;;;;;;10.56;100.00;93091.94;2106561;28;20047;-84
2021/07/29 00:06:32;;;;;;;5.70;3.67;;;;;;;10.55;100.00;93093.09;2106948;28;20045;-85
2021/07/29 00:07:33;;;;;;;4.50;3.50;;;;;;;10.53;100.00;93090.06;2098475;28;20114;-84
2021/07/29 00:08:34;;;;;;;6.03;3.50;;;;;;;10.57;100.00;93093.44;2106709;28;20024;-85
2021/07/29 00:09:35;;;;;;;4.85;3.75;;;;;;;10.58;100.00;93090.34;2101119;28;20390;-84
2021/07/29 00:10:36;;;;;;;7.70;3.80;;;;;;;10.57;100.00;93091.50;2098448;28;20020;-85
2021/07/29 00:11:37;;;;;;;3.58;3.28;;;;;;;10.56;100.00;93090.00;2098533;28;20115;-84
2021/07/29 00:12:37;;;;;;;5.30;4.05;;;;;;;10.57;100.00;93088.09;2106703;28;20027;-85
2021/07/29 00:13:38;;;;;;;4.53;4.03;;;;;;;10.53;100.00;93088.16;2106846;28;20065;-85
2021/07/29 00:14:47;;;;;;;7.10;4.28;;;;;;;10.50;100.00;93085.59;2115050;28;20069;-84
2021/07/29 00:15:48;;;;;;;4.13;3.67;;;;;;;10.51;100.00;93087.84;2114983;28;20553;-85
2021/07/29 00:16:51;;;;;;;5.05;4.40;;;;;;;10.50;100.00;93086.34;2106861;28;20074;-85
2021/07/29 00:19:08;;;;;;;6.10;4.13;;;;;;;10.50;100.00;93083.66;2108153;28;20081;-84
2021/07/29 00:20:10;;;;;;;4.85;3.90;;;;;;;10.50;100.00;93080.25;2102063;28;20115;-85
2021/07/29 00:21:10;;;;;;;4.90;4.40;;;;;;;10.49;100.00;93082.16;2098679;28;20020;-85
2021/07/29 00:22:11;;;;;;;5.85;3.95;;;;;;;10.52;100.00;93072.53;2098513;28;20021;-85
2021/07/29 00:23:12;;;;;;;6.45;4.10;;;;;;;10.52;100.00;93073.28;2106828;28;20016;-85
2021/07/29 00:24:13;;;;;;;6.93;3.88;;;;;;;10.52;100.00;93075.22;2114349;28;20054;-84
2021/07/29 00:25:15;;;;;;;6.95;4.13;;;;;;;10.51;100.00;93074.47;2106504;28;20103;-85
2021/07/29 00:26:17;;;;;;;4.55;3.90;;;;;;;10.48;100.00;93072.63;2098391;28;20701;-85
2021/07/29 00:27:17;;;;;;;6.32;4.50;;;;;;;10.47;100.00;93065.78;2106957;27;20115;-85
2021/07/29 00:28:18;;;;;;;7.45;3.95;;;;;;;10.45;100.00;93070.06;2115049;28;20905;-84
2021/07/29 00:29:19;;;;;;;7.45;4.03;;;;;;;10.43;100.00;93070.44;2115342;28;20031;-85
2021/07/29 00:30:23;;;;;;;5.72;3.80;;;;;;;10.46;100.00;93071.53;2115060;28;20024;-85
2021/07/29 00:31:33;;;;;;;6.15;4.50;;;;;;;10.45;100.00;93075.41;2107075;28;20571;-84
2021/07/29 00:32:35;;;;;;;4.47;3.95;;;;;;;10.44;100.00;93074.63;2100873;28;20043;-85
2021/07/29 00:33:36;;;;;;;5.03;3.90;;;;;;;10.46;100.00;93079.56;2106881;28;20024;-85
2021/07/29 00:34:37;;;;;;;4.63;4.03;;;;;;;10.46;100.00;93074.22;2106683;28;20016;-84
2021/07/29 00:35:38;;;;;;;8.65;3.72;;;;;;;10.43;100.00;93075.03;2097940;28;20051;-84
2021/07/29 00:36:39;;;;;;;4.57;3.53;;;;;;;10.41;100.00;93077.38;2114914;27;20019;-85
2021/07/29 00:37:49;;;;;;;4.45;4.05;;;;;;;10.39;100.00;93072.44;2122301;27;20026;-85
2021/07/29 00:38:50;;;;;;;6.50;4.10;;;;;;;10.41;100.00;93072.78;2107677;28;20667;-85
2021/07/29 00:39:51;;;;;;;4.40;4.00;;;;;;;10.42;100.00;93063.59;2112724;28;20035;-85
2021/07/29 00:40:52;;;;;;;4.57;3.83;;;;;;;10.35;100.00;93069.09;2114856;28;20058;-85
2021/07/29 00:41:53;;;;;;;7.07;3.88;;;;;;;10.36;100.00;93070.63;2098302;28;20805;-84
2021/07/29 00:42:54;;;;;;;4.70;3.65;;;;;;;10.32;100.00;93068.00;2106490;28;20023;-84
2021/07/29 00:44:03;;;;;;;4.30;3.90;;;;;;;10.33;100.00;93066.09;2098286;28;20067;-85
2021/07/29 00:45:05;;;;;;;10.98;4.25;;;;;;;10.24;100.00;93066.66;2103571;28;20028;-84
2021/07/29 00:46:06;;;;;;;7.78;4.07;;;;;;;10.31;100.00;93063.06;2108238;28;20113;-84
2021/07/29 00:47:07;;;;;;;4.45;4.03;;;;;;;10.31;100.00;93069.16;2098058;28;20028;-84
2021/07/29 00:48:08;;;;;;;6.75;4.22;;;;;;;10.31;100.00;93063.81;2098299;28;20025;-85
2021/07/29 00:49:09;;;;;;;7.82;4.50;;;;;;;10.30;100.00;93064.25;2106615;28;20033;-85
2021/07/29 00:50:11;;;;;;;4.32;3.90;;;;;;;10.22;100.00;93063.59;2098069;28;20016;-85
2021/07/29 00:51:12;;;;;;;4.75;4.03;;;;;;;10.16;100.00;93061.84;2113285;28;20034;-85
2021/07/29 00:52:14;;;;;;;6.05;4.20;;;;;;;10.19;100.00;93061.78;2104741;28;20035;-84
2021/07/29 00:53:16;;;;;;;7.00;4.13;;;;;;;10.20;100.00;93059.84;2106635;28;20028;-84
2021/07/29 00:54:17;;;;;;;6.07;3.85;;;;;;;10.19;100.00;93064.47;2098355;28;20024;-84
2021/07/29 00:55:20;;;;;;;5.55;4.15;;;;;;;10.21;100.00;93069.38;2106472;28;20028;-84
2021/07/29 00:56:21;;;;;;;4.95;3.80;;;;;;;10.17;100.00;93061.44;2106624;28;20712;-84
2021/07/29 00:57:23;;;;;;;8.23;4.00;;;;;;;10.14;100.00;93064.16;2097953;28;20065;-84
2021/07/29 00:58:25;;;;;;;7.30;4.68;;;;;;;10.14;100.00;93067.63;2098264;28;20020;-84
2021/07/29 00:59:26;;;;;;;6.82;4.20;;;;;;;10.16;100.00;93061.84;2098289;28;20101;-85
2021/07/29 01:00:27;;;;;;;10.82;4.55;;;;;;;10.09;100.00;93073.44;2102130;28;20089;-84
2021/07/29 01:01:28;;;;;;;9.50;4.32;;;;;;;10.12;100.00;93061.91;2114631;28;20015;-85
2021/07/29 01:02:29;;;;;;;7.20;4.32;;;;;;;10.11;100.00;93073.03;2106053;28;20047;-84
2021/07/29 01:03:30;;;;;;;9.18;4.35;;;;;;;10.11;100.00;93073.03;2097809;28;20108;-84
2021/07/29 01:04:31;;;;;;;4.22;3.83;;;;;;;10.11;100.00;93065.03;2101084;28;20693;-85
2021/07/29 01:05:32;;;;;;;10.50;4.00;;;;;;;10.12;100.00;93061.91;2094556;28;20028;-84
2021/07/29 01:06:33;;;;;;;7.22;3.95;;;;;;;10.01;100.00;93066.75;2098480;28;20078;-83
2021/07/29 01:07:34;;;;;;;9.90;3.70;;;;;;;10.09;100.00;93065.41;2100049;28;20028;-84
2021/07/29 01:09:09;;;;;;;7.18;4.28;;;;;;;10.05;100.00;93060.16;2094645;28;20070;-85
2021/07/29 01:10:10;;;;;;;4.90;3.85;;;;;;;9.99;100.00;93059.13;2082011;28;20028;-84
2021/07/29 01:11:11;;;;;;;5.93;3.90;;;;;;;10.05;100.00;93062.06;2093334;28;20392;-84
2021/07/29 01:12:12;;;;;;;4.60;3.92;;;;;;;10.01;100.00;93059.47;2097874;28;20016;-84
2021/07/29 01:13:13;;;;;;;7.75;4.57;;;;;;;10.01;100.00;93064.06;2106359;28;20024;-85
2021/07/29 01:14:15;;;;;;;5.65;4.30;;;;;;;10.01;100.00;93061.41;2122974;27;20710;-84
2021/07/29 01:15:15;;;;;;;7.70;3.90;;;;;;;10.00;100.00;93062.56;2106349;28;20016;-85
2021/07/29 01:16:16;;;;;;;8.63;3.55;;;;;;;10.05;100.00;93054.03;2114717;28;20051;-84
2021/07/29 01:17:17;;;;;;;7.30;3.75;;;;;;;10.00;100.00;93065.97;2114504;28;20321;-85
2021/07/29 01:18:18;;;;;;;6.72;4.28;;;;;;;10.00;100.00;93059.88;2097842;28;20076;-84
2021/07/29 01:19:23;;;;;;;5.70;3.83;;;;;;;9.91;100.00;93065.78;2100285;28;20684;-84
2021/07/29 01:20:24;;;;;;;5.38;3.47;;;;;;;9.91;100.00;93054.34;2106600;28;20107;-84
2021/07/29 01:21:31;;;;;;;6.43;4.07;;;;;;;9.90;100.00;93061.59;2106144;28;20019;-85
2021/07/29 01:22:34;;;;;;;5.15;3.97;;;;;;;9.88;100.00;93057.84;2107364;28;20028;-84
2021/07/29 01:23:35;;;;;;;6.90;3.92;;;;;;;9.88;100.00;93053.28;2103793;28;20530;-83
2021/07/29 01:24:36;;;;;;;5.78;3.70;;;;;;;9.90;100.00;93055.53;2103173;28;20031;-84
2021/07/29 01:25:37;;;;;;;6.53;4.13;;;;;;;9.87;100.00;93064.34;2114635;28;20450;-85
2021/07/29 01:26:38;;;;;;;4.30;3.25;;;;;;;9.84;100.00;93061.34;2098681;28;20032;-83
2021/07/29 01:27:39;;;;;;;3.88;3.28;;;;;;;9.89;100.00;93059.34;2106153;28;20384;-84
2021/07/29 01:28:40;;;;;;;6.88;4.32;;;;;;;9.89;100.00;93052.09;2106369;28;20071;-83
2021/07/29 01:29:41;;;;;;;6.63;3.47;;;;;;;9.91;100.00;93067.69;2106233;28;20016;-85
2021/07/29 01:30:41;;;;;;;7.65;4.45;;;;;;;9.93;100.00;93066.13;2095629;28;20029;-84
2021/07/29 01:31:42;;;;;;;7.72;3.97;;;;;;;9.90;100.00;93061.59;2105931;28;20519;-84
2021/07/29 01:32:43;;;;;;;11.13;4.28;;;;;;;9.94;100.00;93053.53;2112861;28;20031;-84
2021/07/29 01:33:45;;;;;;;5.13;3.80;;;;;;;9.94;100.00;93056.94;2097840;28;20020;-84
2021/07/29 01:34:46;;;;;;;4.70;4.03;;;;;;;9.94;100.00;93054.28;2097411;28;20073;-84
2021/07/29 01:35:47;;;;;;;3.95;3.42;;;;;;;9.94;100.00;93045.53;2097733;28;20405;-84
2021/07/29 01:36:48;;;;;;;5.68;4.18;;;;;;;9.90;100.00;93048.25;2105970;27;20020;-83
2021/07/29 01:37:49;;;;;;;7.70;3.78;;;;;;;9.95;100.00;93055.03;2103137;28;20412;-85
2021/07/29 01:38:49;;;;;;;4.65;4.10;;;;;;;9.88;100.00;93047.94;2108258;28;20027;-84
2021/07/29 01:39:51;;;;;;;7.70;4.10;;;;;;;9.89;100.00;93049.44;2106063;28;20023;-84
2021/07/29 01:40:52;;;;;;;5.22;3.58;;;;;;;9.89;100.00;93049.44;2098151;28;20408;-84
2021/07/29 01:41:53;;;;;;;7.57;3.90;;;;;;;9.91;100.00;93049.75;2097702;28;20032;-84
2021/07/29 01:42:54;;;;;;;8.93;4.15;;;;;;;9.82;100.00;93052.97;2097668;28;20049;-85
2021/07/29 01:43:55;;;;;;;6.32;3.95;;;;;;;9.88;100.00;93053.28;2105962;28;20384;-84
2021/07/29 01:44:56;;;;;;;5.40;4.05;;;;;;;9.86;100.00;93055.59;2106108;28;20730;-84
2021/07/29 01:45:58;;;;;;;10.63;4.00;;;;;;;9.88;100.00;93052.50;2106045;28;20027;-84
2021/07/29 01:46:58;;;;;;;8.88;4.00;;;;;;;9.86;100.00;93057.50;2097800;28;20024;-85
2021/07/29 01:47:59;;;;;;;5.03;3.65;;;;;;;9.88;100.00;93050.59;2097461;28;20497;-84
2021/07/29 01:49:00;;;;;;;4.70;3.85;;;;;;;9.88;100.00;93047.16;2105945;28;20027;-85
2021/07/29 01:50:01;;;;;;;6.85;4.10;;;;;;;9.87;100.00;93043.72;2113829;28;20053;-84
2021/07/29 01:51:02;;;;;;;8.00;4.22;;;;;;;9.86;100.00;93050.25;2105967;28;20074;-85
2021/07/29 01:52:04;;;;;;;8.05;4.15;;;;;;;9.87;100.00;93049.06;2106032;28;20024;-84
2021/07/29 01:53:05;;;;;;;8.23;3.70;;;;;;;9.87;100.00;93043.72;2103983;28;20028;-85
2021/07/29 01:54:05;;;;;;;6.22;4.10;;;;;;;9.87;100.00;93049.06;2096167;28;20024;-84
2021/07/29 01:55:07;;;;;;;7.32;4.03;;;;;;;9.84;100.00;93047.25;2097429;28;20017;-86
2021/07/29 01:56:09;;;;;;;11.95;4.45;;;;;;;9.82;100.00;93050.31;2105868;28;20024;-84
2021/07/29 01:57:10;;;;;;;6.35;3.80;;;;;;;9.82;100.00;93055.66;2106423;28;20070;-84
2021/07/29 01:58:12;;;;;;;7.88;4.55;;;;;;;9.82;100.00;93050.31;2105720;28;20020;-83
2021/07/29 01:59:13;;;;;;;7.25;3.60;;;;;;;9.83;100.00;93051.06;2095581;28;20024;-83
2021/07/29 02:00:14;;;;;;;6.20;4.18;;;;;;;9.74;100.00;93043.59;2097583;28;20082;-84
2021/07/29 02:01:23;;;;;;;6.95;3.95;;;;;;;9.79;100.00;93047.72;2097573;28;20107;-84
2021/07/29 02:02:24;;;;;;;8.45;4.35;;;;;;;9.80;100.00;93046.56;2098869;28;20090;-84
2021/07/29 02:03:25;;;;;;;6.90;3.97;;;;;;;9.80;100.00;93049.22;2108681;28;20020;-84
2021/07/29 02:04:26;;;;;;;7.60;4.20;;;;;;;9.79;100.00;93045.06;2105809;28;20174;-83
2021/07/29 02:05:27;;;;;;;6.72;3.70;;;;;;;9.82;100.00;93054.91;2105796;28;20063;-84
2021/07/29 02:06:28;;;;;;;8.52;3.95;;;;;;;9.77;100.00;93053.47;2105873;27;20059;-83
2021/07/29 02:07:29;;;;;;;4.95;3.65;;;;;;;9.80;100.00;93054.56;2105552;28;20027;-83
2021/07/29 02:08:29;;;;;;;7.18;3.50;;;;;;;9.74;100.00;93048.19;2097153;28;20523;-84
2021/07/29 02:09:30;;;;;;;7.40;3.75;;;;;;;9.82;100.00;93044.22;2097550;28;20020;-84
2021/07/29 02:10:32;;;;;;;4.50;3.72;;;;;;;9.86;100.00;93046.81;2097499;28;20101;-84
2021/07/29 02:11:35;;;;;;;5.57;3.33;;;;;;;9.80;100.00;93049.97;2097460;28;20032;-84
2021/07/29 02:12:36;;;;;;;4.90;3.47;;;;;;;9.78;100.00;93049.63;2100076;28;20020;-84
2021/07/29 02:13:37;;;;;;;6.85;3.60;;;;;;;9.71;100.00;93052.44;2105355;28;20024;-83
2021/07/29 02:14:37;;;;;;;5.30;3.10;;;;;;;9.71;100.00;93055.13;2105476;28;20019;-84
2021/07/29 02:15:38;;;;;;;4.45;2.88;;;;;;;9.69;100.00;93054.75;2105683;28;20094;-83
2021/07/29 02:16:41;;;;;;;6.15;2.80;;;;;;;9.75;100.00;93050.47;2114001;28;20155;-84
2021/07/29 02:17:42;;;;;;;3.45;3.10;;;;;;;9.75;100.00;93049.72;2112106;28;20019;-84
2021/07/29 02:18:43;;;;;;;4.35;2.47;;;;;;;9.74;100.00;93053.53;2105632;28;20020;-85
2021/07/29 02:19:44;;;;;;;2.78;2.58;;;;;;;9.72;100.00;93059.28;2097709;28;20016;-84
2021/07/29 02:20:45;;;;;;;5.18;3.08;;;;;;;9.76;100.00;93051.22;2104161;28;20550;-84
2021/07/29 02:21:46;;;;;;;4.55;3.17;;;;;;;9.76;100.00;93054.63;2114197;28;20035;-84
2021/07/29 02:22:47;;;;;;;3.88;2.97;;;;;;;9.73;100.00;93052.03;2106011;28;20042;-84
2021/07/29 02:23:48;;;;;;;5.97;3.00;;;;;;;9.79;100.00;93045.06;2105644;28;20024;-84
2021/07/29 02:24:49;;;;;;;5.20;2.72;;;;;;;9.79;100.00;93048.47;2112934;28;20058;-85
2021/07/29 02:25:50;;;;;;;7.30;2.95;;;;;;;9.84;100.00;93044.56;2111250;28;20690;-84
2021/07/29 02:26:51;;;;;;;2.78;2.58;;;;;;;9.72;100.00;93048.63;2122312;28;20027;-84
2021/07/29 02:27:52;;;;;;;4.43;3.00;;;;;;;9.75;100.00;93055.81;2113909;28;20030;-84
2021/07/29 02:28:53;;;;;;;2.72;2.53;;;;;;;9.66;100.00;93052.16;2114051;28;20031;-84
2021/07/29 02:29:54;;;;;;;8.25;3.10;;;;;;;9.70;100.00;93050.19;2095660;28;20024;-84
2021/07/29 02:30:58;;;;;;;4.25;2.38;;;;;;;9.68;100.00;93055.19;2097468;28;20373;-84
2021/07/29 02:31:58;;;;;;;3.45;2.67;;;;;;;9.71;100.00;93057.78;2109609;28;20035;-84
2021/07/29 02:32:59;;;;;;;3.00;2.78;;;;;;;9.66;100.00;93058.28;2097104;28;20073;-84
2021/07/29 02:34:00;;;;;;;6.18;3.05;;;;;;;9.68;100.00;93063.19;2105477;28;20020;-84
2021/07/29 02:35:02;;;;;;;3.53;2.70;;;;;;;9.69;100.00;93062.03;2093531;28;20066;-83
2021/07/29 02:36:03;;;;;;;3.42;2.78;;;;;;;9.65;100.00;93053.31;2097239;28;20021;-83
2021/07/29 02:37:04;;;;;;;3.40;3.10;;;;;;;9.63;100.00;93053.00;2095339;28;20086;-84
2021/07/29 02:38:05;;;;;;;4.97;3.28;;;;;;;9.60;100.00;93054.56;2105367;28;20443;-83
2021/07/29 02:39:06;;;;;;;5.40;2.90;;;;;;;9.63;100.00;93058.34;2113497;28;20028;-84
2021/07/29 02:40:07;;;;;;;3.10;2.80;;;;;;;9.62;100.00;93054.16;2105745;28;20024;-84
2021/07/29 02:41:08;;;;;;;4.97;3.05;;;;;;;9.63;100.00;93061.00;2105803;28;20020;-84
2021/07/29 02:42:09;;;;;;;3.90;2.95;;;;;;;9.58;100.00;93049.66;2105575;28;20048;-84
2021/07/29 02:43:10;;;;;;;3.53;3.22;;;;;;;9.63;100.00;93047.66;2106358;28;20056;-84
2021/07/29 02:44:12;;;;;;;4.10;3.05;;;;;;;9.59;100.00;93055.72;2108022;28;20021;-84
2021/07/29 02:45:15;;;;;;;6.13;3.55;;;;;;;9.60;100.00;93051.91;2105695;28;20034;-84
2021/07/29 02:46:16;;;;;;;4.80;3.22;;;;;;;9.59;100.00;93058.41;2097839;28;20016;-84
2021/07/29 02:47:17;;;;;;;5.47;3.10;;;;;;;9.59;100.00;93059.16;2096985;28;20093;-83
2021/07/29 02:48:18;;;;;;;3.28;2.97;;;;;;;9.55;100.00;93053.13;2097336;28;20021;-85
2021/07/29 02:49:19;;;;;;;4.93;3.22;;;;;;;9.52;100.00;93050.53;2111941;28;20998;-84
2021/07/29 02:50:20;;;;;;;3.25;2.95;;;;;;;9.52;100.00;93050.53;2114056;28;20564;-84
2021/07/29 02:51:21;;;;;;;4.15;3.03;;;;;;;9.57;100.00;93055.41;2105976;28;20640;-84
2021/07/29 02:52:22;;;;;;;5.78;3.00;;;;;;;9.57;100.00;93058.81;2105768;28;20028;-84
2021/07/29 02:53:25;;;;;;;3.80;2.80;;;;;;;9.49;100.00;93054.78;2103022;28;20020;-85
2021/07/29 02:54:26;;;;;;;4.78;3.25;;;;;;;9.50;100.00;93055.53;2114400;28;20050;-84
2021/07/29 02:55:26;;;;;;;5.18;3.33;;;;;;;9.52;100.00;93059.28;2114141;28;20069;-85
2021/07/29 02:56:27;;;;;;;4.15;3.22;;;;;;;9.52;100.00;93072.63;2105576;28;20020;-84
2021/07/29 02:57:28;;;;;;;2.97;2.78;;;;;;;9.52;100.00;93059.28;2096828;28;20381;-85
2021/07/29 02:58:29;;;;;;;3.50;3.20;;;;;;;9.53;100.00;93060.81;2105765;28;20045;-83
2021/07/29 02:59:30;;;;;;;3.55;2.70;;;;;;;9.61;100.00;93061.41;2104236;28;20097;-84
2021/07/29 03:00:31;;;;;;;3.22;2.72;;;;;;;9.54;100.00;93061.56;2097590;28;20024;-84
2021/07/29 03:01:32;;;;;;;4.28;2.80;;;;;;;9.59;100.00;93063.72;2107370;28;20028;-84
2021/07/29 03:02:33;;;;;;;4.03;3.15;;;;;;;9.59;100.00;93063.72;2109425;28;20385;-84
2021/07/29 03:03:34;;;;;;;3.75;3.03;;;;;;;9.62;100.00;93068.25;2103766;28;20032;-84
2021/07/29 03:04:35;;;;;;;4.18;3.03;;;;;;;9.57;100.00;93066.06;2098794;28;20024;-84
2021/07/29 03:05:36;;;;;;;3.72;3.10;;;;;;;9.56;100.00;93069.88;2098859;28;20028;-84
2021/07/29 03:06:37;;;;;;;3.75;3.45;;;;;;;9.54;100.00;93061.56;2108873;28;20040;-84
2021/07/29 03:07:38;;;;;;;3.42;2.80;;;;;;;9.58;100.00;93067.56;2118718;27;20015;-85
2021/07/29 03:08:39;;;;;;;4.80;2.90;;;;;;;9.60;100.00;93065.22;2107230;28;20020;-84
2021/07/29 03:09:39;;;;;;;5.72;3.00;;;;;;;9.67;100.00;93067.03;2107189;28;20092;-84
2021/07/29 03:10:45;;;;;;;3.97;3.35;;;;;;;9.66;100.00;93068.94;2113110;28;20023;-85
2021/07/29 03:11:45;;;;;;;3.10;2.80;;;;;;;9.71;100.00;93067.72;2107405;28;20024;-84
2021/07/29 03:12:46;;;;;;;5.93;2.92;;;;;;;9.68;100.00;93071.19;2106970;28;20851;-84
2021/07/29 03:13:47;;;;;;;4.65;3.10;;;;;;;9.73;100.00;93065.38;2107202;28;20516;-84
2021/07/29 03:14:48;;;;;;;3.15;2.70;;;;;;;9.79;100.00;93069.84;2098768;28;20028;-84
2021/07/29 03:15:49;;;;;;;8.43;3.17;;;;;;;9.75;100.00;93069.16;2098801;28;20117;-84
2021/07/29 03:16:50;;;;;;;4.45;2.85;;;;;;;9.77;100.00;93069.47;2097637;28;20028;-84
2021/07/29 03:17:51;;;;;;;4.75;3.20;;;;;;;9.78;100.00;93067.56;2115660;28;20031;-84
2021/07/29 03:18:52;;;;;;;4.07;2.90;;;;;;;9.83;100.00;93073.19;2115611;28;20030;-84
2021/07/29 03:19:53;;;;;;;5.22;3.20;;;;;;;9.86;100.00;93068.94;2107265;28;20024;-84
2021/07/29 03:20:54;;;;;;;5.75;3.08;;;;;;;9.89;100.00;93059.34;2107199;28;20024;-84
2021/07/29 03:21:54;;;;;;;3.75;2.53;;;;;;;9.90;100.00;93061.59;2107358;28;20057;-84
2021/07/29 03:22:55;;;;;;;5.20;3.15;;;;;;;9.90;100.00;93066.19;2114761;28;20028;-84
2021/07/29 03:23:56;;;;;;;7.85;3.22;;;;;;;9.88;100.00;93066.63;2107937;28;20035;-84
2021/07/29 03:24:57;;;;;;;3.45;3.15;;;;;;;9.88;100.00;93066.63;2107277;28;20038;-83
2021/07/29 03:25:58;;;;;;;3.83;3.10;;;;;;;9.88;100.00;93065.84;2106841;28;20082;-85
2021/07/29 03:26:59;;;;;;;5.78;3.25;;;;;;;9.88;100.00;93060.50;2107286;28;20034;-84
2021/07/29 03:28:00;;;;;;;3.40;3.10;;;;;;;9.88;100.00;93063.94;2104837;28;20027;-84
2021/07/29 03:29:01;;;;;;;4.18;3.10;;;;;;;9.89;100.00;93068.13;2098902;28;20017;-85
2021/07/29 03:30:02;;;;;;;6.53;3.30;;;;;;;9.90;100.00;93064.28;2098944;28;20469;-83
2021/07/29 03:31:03;;;;;;;3.25;2.95;;;;;;;9.92;100.00;93069.19;2096691;28;20436;-84
2021/07/29 03:32:05;;;;;;;4.82;2.88;;;;;;;9.88;100.00;93071.97;2098108;28;20032;-83
2021/07/29 03:33:07;;;;;;;3.72;3.00;;;;;;;9.89;100.00;93062.78;2107720;28;20032;-83
2021/07/29 03:34:08;;;;;;;4.70;3.10;;;;;;;9.90;100.00;93071.53;2115361;28;20024;-84
2021/07/29 03:35:09;;;;;;;3.17;2.83;;;;;;;9.94;100.00;93062.28;2098775;28;20032;-85
2021/07/29 03:36:10;;;;;;;3.95;3.08;;;;;;;9.88;100.00;93069.28;2098739;28;20027;-84
2021/07/29 03:37:11;;;;;;;3.17;2.88;;;;;;;9.85;100.00;93072.78;2103390;28;20400;-85
2021/07/29 03:38:12;;;;;;;3.30;2.97;;;;;;;9.79;100.00;93069.09;2098228;28;20031;-84
2021/07/29 03:39:13;;;;;;;3.47;3.17;;;;;;;9.75;100.00;93071.06;2100604;28;20112;-83
2021/07/29 03:40:14;;;;;;;3.17;2.83;;;;;;;9.71;100.00;93067.72;2098688;28;20035;-84
2021/07/29 03:41:15;;;;;;;5.40;3.47;;;;;;;9.75;100.00;93073.75;2105048;27;20380;-84
2021/07/29 03:42:18;;;;;;;5.45;3.10;;;;;;;9.72;100.00;93066.53;2106939;28;20020;-85
2021/07/29 03:43:19;;;;;;;5.85;3.47;;;;;;;9.68;100.00;93065.84;2107537;27;20111;-84
2021/07/29 03:44:20;;;;;;;4.68;3.10;;;;;;;9.65;100.00;93069.34;2107028;28;20705;-85
2021/07/29 03:45:21;;;;;;;4.10;3.60;;;;;;;9.70;100.00;93066.97;2106894;28;20016;-84
2021/07/29 03:46:22;;;;;;;3.80;3.03;;;;;;;9.65;100.00;93072.00;2090464;28;20370;-85
2021/07/29 03:47:23;;;;;;;4.68;3.35;;;;;;;9.62;100.00;93064.84;2098652;28;20119;-84
2021/07/29 03:48:23;;;;;;;5.53;3.10;;;;;;;9.57;100.00;93064.16;2098417;28;20070;-85
2021/07/29 03:49:24;;;;;;;3.40;3.08;;;;;;;9.59;100.00;93069.81;2109108;28;20031;-84
2021/07/29 03:50:26;;;;;;;4.28;3.20;;;;;;;9.57;100.00;93072.16;2115244;28;20086;-85
2021/07/29 03:51:27;;;;;;;3.88;3.20;;;;;;;9.54;100.00;93070.31;2098891;28;20032;-85
2021/07/29 03:52:28;;;;;;;3.92;3.55;;;;;;;9.61;100.00;93072.06;2098620;28;20032;-84
2021/07/29 03:53:29;;;;;;;5.97;3.20;;;;;;;9.59;100.00;93069.81;2096243;28;20048;-84
2021/07/29 03:54:31;;;;;;;8.65;3.40;;;;;;;9.57;100.00;93066.81;2098920;28;20020;-85
2021/07/29 03:55:32;;;;;;;3.38;3.08;;;;;;;9.59;100.00;93072.50;2103287;28;20020;-84
2021/07/29 03:56:33;;;;;;;3.20;2.90;;;;;;;9.58;100.00;93070.25;2115269;28;20040;-84
2021/07/29 03:57:34;;;;;;;3.58;3.05;;;;;;;9.59;100.00;93075.16;2114273;28;20714;-85
2021/07/29 03:58:36;;;;;;;3.75;3.10;;;;;;;9.57;100.00;93071.41;2106767;28;20074;-84
2021/07/29 03:59:37;;;;;;;3.10;2.80;;;;;;;9.57;100.00;93074.84;2100502;28;20084;-84
2021/07/29 04:00:38;;;;;;;4.70;2.70;;;;;;;9.54;100.00;93075.63;2098653;28;20020;-84
2021/07/29 04:01:39;;;;;;;3.08;2.83;;;;;;;9.56;100.00;93075.22;2106794;28;20028;-83
2021/07/29 04:02:40;;;;;;;3.40;3.10;;;;;;;9.48;100.00;93077.28;2098355;28;20040;-84
2021/07/29 04:03:41;;;;;;;4.30;3.63;;;;;;;9.52;100.00;93074.53;2110563;28;20030;-84
2021/07/29 04:04:42;;;;;;;3.28;2.97;;;;;;;9.49;100.00;93078.03;2103930;28;20389;-84
2021/07/29 04:05:43;;;;;;;5.18;3.22;;;;;;;9.45;100.00;93077.34;2095965;28;20380;-84
2021/07/29 04:06:44;;;;;;;4.78;3.30;;;;;;;9.42;100.00;93070.16;2099297;28;20031;-84
2021/07/29 04:07:45;;;;;;;5.40;2.95;;;;;;;9.46;100.00;93073.50;2106829;28;20043;-83
2021/07/29 04:08:46;;;;;;;6.95;3.20;;;;;;;9.47;100.00;93078.44;2097716;28;20377;-83
2021/07/29 04:09:47;;;;;;;4.47;3.40;;;;;;;9.48;100.00;93077.28;2106759;28;20038;-84
2021/07/29 04:10:48;;;;;;;5.82;2.80;;;;;;;9.45;100.00;93074.69;2106942;28;20032;-84
2021/07/29 04:11:49;;;;;;;3.33;3.03;;;;;;;9.44;100.00;93073.94;2103262;28;20024;-84
2021/07/29 04:12:49;;;;;;;3.55;3.25;;;;;;;9.42;100.00;93073.56;2097644;28;20147;-85
2021/07/29 04:13:50;;;;;;;5.25;3.15;;;;;;;9.42;100.00;93078.16;2105248;28;20573;-84
2021/07/29 04:14:51;;;;;;;3.45;3.05;;;;;;;9.41;100.00;93074.00;2106655;28;20032;-84
2021/07/29 04:16:02;;;;;;;3.35;3.05;;;;;;;9.33;100.00;93074.09;2115233;28;20488;-84
2021/07/29 04:17:03;;;;;;;3.60;2.72;;;;;;;9.32;100.00;93079.84;2101056;28;20028;-84
2021/07/29 04:18:04;;;;;;;7.97;2.95;;;;;;;9.36;100.00;93087.81;2106530;28;20020;-84
2021/07/29 04:19:05;;;;;;;3.42;2.88;;;;;;;9.39;100.00;93086.97;2098217;28;20070;-84
2021/07/29 04:20:07;;;;;;;3.63;3.33;;;;;;;9.38;100.00;93080.88;2098217;28;20032;-86
2021/07/29 04:21:15;;;;;;;5.90;3.10;;;;;;;9.38;100.00;93091.56;2097907;28;20016;-85
2021/07/29 04:22:17;;;;;;;4.20;3.03;;;;;;;9.39;100.00;93086.97;2100226;28;20043;-84
2021/07/29 04:23:18;;;;;;;5.60;3.25;;;;;;;9.36;100.00;93083.22;2106348;28;20092;-84
2021/07/29 04:24:19;;;;;;;3.42;3.13;;;;;;;9.37;100.00;93082.06;2094603;28;20479;-84
2021/07/29 04:25:19;;;;;;;3.63;3.33;;;;;;;9.43;100.00;93077.00;2098407;28;20020;-84
2021/07/29 04:26:20;;;;;;;3.45;3.03;;;;;;;9.41;100.00;93087.31;2095454;28;20033;-83
2021/07/29 04:27:22;;;;;;;3.78;3.47;;;;;;;9.47;100.00;93091.78;2095770;28;20394;-83
2021/07/29 04:28:23;;;;;;;3.63;3.33;;;;;;;9.54;100.00;93091.66;2101263;28;20639;-84
2021/07/29 04:29:25;;;;;;;7.00;3.63;;;;;;;9.54;100.00;93086.31;2098087;28;20032;-84
2021/07/29 04:30:26;;;;;;;3.28;2.97;;;;;;;9.53;100.00;93082.16;2094004;27;20017;-84
2021/07/29 04:31:27;;;;;;;4.45;3.22;;;;;;;9.58;100.00;93088.91;2108562;28;20505;-84
2021/07/29 04:32:34;;;;;;;6.10;3.50;;;;;;;9.63;100.00;93083.09;2098171;28;20089;-84
2021/07/29 04:33:35;;;;;;;3.08;2.88;;;;;;;9.64;100.00;93083.84;2099899;28;20078;-84
2021/07/29 04:34:36;;;;;;;3.97;3.00;;;;;;;9.64;100.00;93081.19;2098001;28;20028;-84
2021/07/29 04:35:38;;;;;;;4.28;2.95;;;;;;;9.66;100.00;93079.63;2098376;28;20067;-84
2021/07/29 04:36:40;;;;;;;3.97;3.42;;;;;;;9.74;100.00;93082.88;2115020;27;20019;-83
2021/07/29 04:37:41;;;;;;;4.07;3.42;;;;;;;9.75;100.00;93085.16;2106721;28;20023;-84
2021/07/29 04:38:42;;;;;;;4.35;3.53;;;;;;;9.72;100.00;93080.63;2098021;28;20063;-84
2021/07/29 04:39:44;;;;;;;5.00;2.90;;;;;;;9.76;100.00;93080.59;2093870;28;20027;-84
2021/07/29 04:40:45;;;;;;;4.20;3.67;;;;;;;9.77;100.00;93082.06;2100494;28;20635;-84
2021/07/29 04:41:47;;;;;;;6.78;3.63;;;;;;;9.79;100.00;93088.53;2097657;28;20031;-84
2021/07/29 04:42:47;;;;;;;3.63;3.17;;;;;;;9.80;100.00;93081.25;2106569;28;20030;-84
2021/07/29 04:43:48;;;;;;;4.07;3.30;;;;;;;9.79;100.00;93082.44;2111783;28;20023;-84
2021/07/29 04:44:49;;;;;;;5.13;3.40;;;;;;;9.80;100.00;93084.69;2096584;28;20020;-83
2021/07/29 04:45:51;;;;;;;3.55;3.25;;;;;;;9.81;100.00;93090.78;2098056;28;21603;-84
2021/07/29 04:46:52;;;;;;;4.18;2.65;;;;;;;9.83;100.00;93080.41;2098467;28;20029;-84
2021/07/29 04:47:53;;;;;;;5.90;3.40;;;;;;;9.86;100.00;93087.63;2106366;28;20587;-85
2021/07/29 04:48:54;;;;;;;3.25;2.95;;;;;;;9.83;100.00;93091.88;2113784;28;20130;-83
2021/07/29 04:49:55;;;;;;;3.13;2.90;;;;;;;9.85;100.00;93086.13;2106686;28;20028;-84